Time;durP1;ratioP1;P1;durP2;ratioP2;P2;SDS_P1;SDS_P2;PMS_P1;PMS_P2;Temp;Humidity;BMP_temperature;BMP_pressure;BME280_temperature;BME280_humidity;BME280_pressure;Samples;Min_cycle;Max_cycle;Signal;HPM_P1;HPM_P2
2023/12/13 00:03:24;;;;;;;;;;;;;;;16.98;47.10;97847.13;10327920;28;888;-71
2023/12/13 00:08:20;;;;;;;;;;;;;;;16.97;47.24;97848.06;10326884;28;922;-71
2023/12/13 00:13:16;;;;;;;;;;;;;;;16.94;47.28;97837.75;10328020;28;1953;-71
2023/12/13 00:18:12;;;;;;;;;;;;;;;16.92;47.29;97840.47;10327932;28;841;-71
2023/12/13 00:23:08;;;;;;;;;;;;;;;16.90;47.45;97845.03;10326544;28;1027;-71
2023/12/13 00:28:04;;;;;;;;;;;;;;;16.88;47.23;97843.44;10327202;28;781;-72
2023/12/13 00:33:00;;;;;;;;;;;;;;;16.84;47.26;97842.81;10326131;28;1894;-72
2023/12/13 00:37:55;;;;;;;;;;;;;;;16.83;47.16;97838.50;10327008;28;1198;-71
2023/12/13 00:42:51;;;;;;;;;;;;;;;16.81;47.26;97838.59;10327199;28;826;-71
2023/12/13 00:47:47;;;;;;;;;;;;;;;16.80;47.28;97836.09;10327071;28;760;-71
2023/12/13 00:52:43;;;;;;;;;;;;;;;16.78;47.33;97836.19;10326071;28;1965;-71
2023/12/13 00:57:39;;;;;;;;;;;;;;;16.75;47.38;97833.72;10326631;28;912;-71
2023/12/13 01:02:35;;;;;;;;;;;;;;;16.74;47.30;97839.97;10325891;28;853;-71
2023/12/13 01:07:31;;;;;;;;;;;;;;;16.73;47.28;97840.88;10327045;28;877;-71
2023/12/13 01:12:27;;;;;;;;;;;;;;;16.71;47.43;97855.94;10325656;28;1882;-72
2023/12/13 01:17:23;;;;;;;;;;;;;;;16.70;47.13;97849.00;10325360;28;928;-72
2023/12/13 01:22:19;;;;;;;;;;;;;;;16.66;47.35;97852.78;10325696;28;846;-72
2023/12/13 01:27:15;;;;;;;;;;;;;;;16.65;47.38;97843.22;10325320;28;814;-72
2023/12/13 01:32:11;;;;;;;;;;;;;;;16.62;47.36;97840.78;10325432;28;1898;-71
2023/12/13 01:37:07;;;;;;;;;;;;;;;16.63;47.46;97851.19;10324911;28;1160;-71
2023/12/13 01:42:03;;;;;;;;;;;;;;;16.63;47.27;97851.19;10325605;28;898;-71
2023/12/13 01:46:59;;;;;;;;;;;;;;;16.67;47.29;97845.75;10325741;28;972;-71
2023/12/13 01:51:55;;;;;;;;;;;;;;;16.71;47.25;97852.47;10325529;28;1967;-71
2023/12/13 01:56:52;;;;;;;;;;;;;;;16.77;46.90;97852.06;10325290;28;926;-72
2023/12/13 02:01:48;;;;;;;;;;;;;;;16.79;46.76;97843.16;10325256;28;747;-72
2023/12/13 02:06:43;;;;;;;;;;;;;;;16.81;46.97;97851.75;10325136;28;916;-71
2023/12/13 02:11:39;;;;;;;;;;;;;;;16.84;46.80;97845.44;10323768;28;1886;-71
2023/12/13 02:16:37;;;;;;;;;;;;;;;16.86;46.70;97840.91;10324963;28;774;-71
2023/12/13 02:21:32;;;;;;;;;;;;;;;16.88;46.62;97846.06;10324864;28;869;-72
2023/12/13 02:26:28;;;;;;;;;;;;;;;16.88;46.75;97844.28;10324222;28;894;-72
2023/12/13 02:31:24;;;;;;;;;;;;;;;16.91;46.64;97840.59;10329488;28;1885;-71
2023/12/13 02:36:20;;;;;;;;;;;;;;;16.92;46.75;97832.56;10331687;28;1271;-71
2023/12/13 02:41:16;;;;;;;;;;;;;;;16.95;46.67;97829.75;10331476;28;933;-71
2023/12/13 02:46:12;;;;;;;;;;;;;;;17.00;46.58;97832.91;10331323;28;786;-71
2023/12/13 02:51:08;;;;;;;;;;;;;;;17.00;46.55;97832.03;10330796;28;1919;-71
2023/12/13 02:56:04;;;;;;;;;;;;;;;17.06;46.33;97826.38;10330641;28;869;-72
2023/12/13 03:01:00;;;;;;;;;;;;;;;17.09;46.36;97823.50;10331083;28;834;-71
2023/12/13 03:05:56;;;;;;;;;;;;;;;17.09;46.32;97824.34;10330893;28;858;-72
2023/12/13 03:10:52;;;;;;;;;;;;;;;17.11;46.29;97823.38;10331442;28;1894;-71
2023/12/13 03:15:48;;;;;;;;;;;;;;;17.15;46.33;97806.44;10329862;28;870;-71
2023/12/13 03:20:44;;;;;;;;;;;;;;;17.15;46.42;97812.53;10329668;28;779;-71
2023/12/13 03:25:39;;;;;;;;;;;;;;;17.15;46.36;97809.91;10329538;28;830;-71
2023/12/13 03:30:35;;;;;;;;;;;;;;;17.18;46.39;97796.50;10329355;28;807;-71
2023/12/13 03:35:31;;;;;;;;;;;;;;;17.18;46.18;97801.78;10328794;28;1957;-71
2023/12/13 03:40:27;;;;;;;;;;;;;;;17.17;46.27;97807.16;10327844;28;941;-71
2023/12/13 03:45:24;;;;;;;;;;;;;;;17.16;46.28;97795.81;10328750;28;834;-71
2023/12/13 03:50:20;;;;;;;;;;;;;;;17.19;46.25;97794.75;10328568;28;861;-71
2023/12/13 03:55:16;;;;;;;;;;;;;;;17.18;46.39;97790.41;10328775;28;1906;-71
2023/12/13 04:00:12;;;;;;;;;;;;;;;17.18;46.21;97793.03;10328114;28;984;-71
2023/12/13 04:05:07;;;;;;;;;;;;;;;17.17;46.37;97789.56;10327980;28;817;-72
2023/12/13 04:10:04;;;;;;;;;;;;;;;17.20;46.26;97789.34;10327711;28;834;-72
2023/12/13 04:15:00;;;;;;;;;;;;;;;17.19;46.22;97787.69;10327473;28;1963;-72
2023/12/13 04:19:58;;;;;;;;;;;;;;;17.18;46.31;97782.50;10326887;28;1036;-71
2023/12/13 04:24:54;;;;;;;;;;;;;;;17.20;46.36;97785.88;10327183;28;797;-72
2023/12/13 04:29:50;;;;;;;;;;;;;;;17.20;46.43;97770.91;10326426;28;857;-71
2023/12/13 04:34:46;;;;;;;;;;;;;;;17.19;46.24;97778.94;10326818;28;1902;-71
2023/12/13 04:39:41;;;;;;;;;;;;;;;17.18;46.25;97772.81;10325992;28;791;-71
2023/12/13 04:44:38;;;;;;;;;;;;;;;17.19;46.38;97771.88;10327080;28;857;-71
2023/12/13 04:49:34;;;;;;;;;;;;;;;17.22;46.11;97774.28;10326319;28;845;-71
2023/12/13 04:54:30;;;;;;;;;;;;;;;17.22;46.38;97779.56;10325660;28;1910;-71
2023/12/13 04:59:26;;;;;;;;;;;;;;;17.27;46.17;97776.59;10326018;28;792;-71
2023/12/13 05:04:22;;;;;;;;;;;;;;;17.27;46.21;97780.06;10325860;28;781;-71
2023/12/13 05:09:18;;;;;;;;;;;;;;;17.29;46.24;97786.06;10325903;28;819;-72
2023/12/13 05:14:13;;;;;;;;;;;;;;;17.35;46.08;97778.69;10326168;28;1902;-72
2023/12/13 05:19:09;;;;;;;;;;;;;;;17.36;45.94;97772.44;10325512;28;763;-71
2023/12/13 05:24:05;;;;;;;;;;;;;;;17.41;45.94;97770.31;10325983;28;846;-72
2023/12/13 05:29:01;;;;;;;;;;;;;;;17.41;45.98;97770.31;10325651;28;791;-71
2023/12/13 05:33:57;;;;;;;;;;;;;;;17.40;46.02;97766.84;10325522;28;1964;-71
2023/12/13 05:38:53;;;;;;;;;;;;;;;17.43;46.10;97771.06;10325108;28;926;-71
2023/12/13 05:43:49;;;;;;;;;;;;;;;17.46;46.07;97765.56;10324455;28;908;-72
2023/12/13 05:48:45;;;;;;;;;;;;;;;17.44;45.88;97763.03;10324959;28;825;-72
2023/12/13 05:53:40;;;;;;;;;;;;;;;17.46;45.99;97757.66;10324802;28;1976;-71
2023/12/13 05:58:36;;;;;;;;;;;;;;;17.47;45.85;97754.06;10325343;28;872;-72
2023/12/13 06:03:32;;;;;;;;;;;;;;;17.44;46.04;97757.75;10326592;28;784;-72
2023/12/13 06:08:28;;;;;;;;;;;;;;;17.47;46.04;97760.16;10332567;28;932;-72
2023/12/13 06:13:24;;;;;;;;;;;;;;;17.51;46.02;97771.31;10333141;28;1897;-71
2023/12/13 06:18:20;;;;;;;;;;;;;;;17.54;46.09;97773.72;10332743;28;864;-72
2023/12/13 06:23:16;;;;;;;;;;;;;;;17.53;46.11;97772.06;10331906;28;1208;-72
2023/12/13 06:28:11;;;;;;;;;;;;;;;17.59;46.09;97778.66;10331115;28;874;-72
2023/12/13 06:33:07;;;;;;;;;;;;;;;17.57;46.20;97778.78;10331458;28;1963;-72
2023/12/13 06:38:03;;;;;;;;;;;;;;;17.57;45.95;97783.19;10332749;28;1128;-72
2023/12/13 06:42:59;;;;;;;;;;;;;;;17.59;46.12;97776.88;10331203;28;921;-72
2023/12/13 06:47:55;;;;;;;;;;;;;;;17.58;46.30;97772.56;10331017;28;751;-72
2023/12/13 06:52:51;;;;;;;;;;;;;;;17.58;46.33;97766.44;10330146;28;1917;-75
2023/12/13 06:57:47;;;;;;;;;;;;;;;17.57;46.42;97770.88;10330622;28;978;-72
2023/12/13 07:02:43;;;;;;;;;;;;;;;17.57;46.36;97775.31;10329919;28;896;-71
2023/12/13 07:07:39;;;;;;;;;;;;;;;17.57;46.27;97780.56;10330287;28;803;-72
2023/12/13 07:12:35;;;;;;;;;;;;;;;17.57;46.23;97783.19;10330082;28;1894;-72
2023/12/13 07:17:31;;;;;;;;;;;;;;;17.52;46.73;97786.16;10329584;28;1713;-72
2023/12/13 07:22:27;;;;;;;;;;;;;;;17.48;46.80;97784.72;10329747;28;941;-72
2023/12/13 07:27:23;;;;;;;;;;;;;;;17.42;46.87;97790.41;10329558;28;763;-77
2023/12/13 07:32:18;;;;;;;;;;;;;;;17.41;47.01;97791.38;10329115;28;1897;-72
2023/12/13 07:37:14;;;;;;;;;;;;;;;17.36;47.06;97790.88;10329634;28;1176;-72
2023/12/13 07:42:11;;;;;;;;;;;;;;;17.38;47.29;97794.25;10328916;28;1122;-72
2023/12/13 07:47:07;;;;;;;;;;;;;;;17.36;47.40;97794.34;10329296;28;814;-71
2023/12/13 07:52:05;;;;;;;;;;;;;;;17.39;47.20;97802.03;10329081;28;1910;-71
2023/12/13 07:57:01;;;;;;;;;;;;;;;17.40;47.02;97795.00;10325971;28;1128;-71
2023/12/13 08:01:57;;;;;;;;;;;;;;;17.41;46.86;97799.28;10328088;28;884;-71
2023/12/13 08:06:53;;;;;;;;;;;;;;;17.46;46.86;97791.91;10327342;28;788;-71
2023/12/13 08:11:49;;;;;;;;;;;;;;;17.47;46.97;97798.84;10327762;28;1961;-71
2023/12/13 08:16:45;;;;;;;;;;;;;;;17.51;46.66;97795.88;10327120;28;764;-71
2023/12/13 08:21:41;;;;;;;;;;;;;;;17.56;46.70;97798.19;10327642;28;819;-71
2023/12/13 08:26:36;;;;;;;;;;;;;;;17.57;46.82;97796.38;10326043;28;1013;-71
2023/12/13 08:31:32;;;;;;;;;;;;;;;17.58;46.69;97796.28;10327468;28;1957;-72
2023/12/13 08:36:28;;;;;;;;;;;;;;;17.58;46.76;97798.91;10325771;28;1458;-72
2023/12/13 08:41:24;;;;;;;;;;;;;;;17.61;46.59;97790.78;10325565;28;1018;-71
2023/12/13 08:46:20;;;;;;;;;;;;;;;17.61;46.81;97806.59;10325240;28;870;-72
2023/12/13 08:51:16;;;;;;;;;;;;;;;17.59;46.63;97805.84;10325895;28;1965;-72
2023/12/13 08:56:12;;;;;;;;;;;;;;;17.60;46.70;97817.22;10326045;28;805;-72
2023/12/13 09:01:08;;;;;;;;;;;;;;;17.65;46.53;97821.19;10325986;28;885;-74
2023/12/13 09:06:04;;;;;;;;;;;;;;;17.66;46.80;97825.53;10326295;28;888;-72
2023/12/13 09:11:00;;;;;;;;;;;;;;;17.62;46.71;97823.22;10325768;28;1945;-72
2023/12/13 09:15:56;;;;;;;;;;;;;;;17.64;46.56;97839.75;10326331;28;926;-71
2023/12/13 09:20:51;;;;;;;;;;;;;;;17.67;46.80;97831.63;10325513;28;908;-78
2023/12/13 09:25:48;;;;;;;;;;;;;;;17.48;46.71;97832.97;10326147;28;843;-77
2023/12/13 09:30:44;;;;;;;;;;;;;;;17.41;47.07;97844.06;10325355;28;779;-77
2023/12/13 09:35:40;;;;;;;;;;;;;;;17.38;47.08;97839.03;10325538;28;1918;-72
2023/12/13 09:40:36;;;;;;;;;;;;;;;17.50;46.65;97838.13;10331848;28;887;-72
2023/12/13 09:45:32;;;;;;;;;;;;;;;17.55;46.50;97833.34;10333458;28;824;-71
2023/12/13 09:50:28;;;;;;;;;;;;;;;17.58;46.44;97835.78;10332816;28;864;-72
2023/12/13 09:55:24;;;;;;;;;;;;;;;17.61;46.34;97848.72;10333823;28;1931;-71
2023/12/13 10:00:20;;;;;;;;;;;;;;;17.64;46.57;97848.50;10332950;28;779;-72
2023/12/13 10:05:16;;;;;;;;;;;;;;;17.67;46.61;97847.44;10333662;28;809;-71
2023/12/13 10:10:12;;;;;;;;;;;;;;;17.70;46.47;97841.94;10332683;28;870;-71
2023/12/13 10:15:08;;;;;;;;;;;;;;;17.72;46.25;97846.16;10332536;28;1910;-71
2023/12/13 10:20:04;;;;;;;;;;;;;;;17.75;46.17;97853.00;10331466;28;1036;-71
2023/12/13 10:25:00;;;;;;;;;;;;;;;17.74;46.46;97853.94;10331928;28;780;-75
2023/12/13 10:29:56;;;;;;;;;;;;;;;17.72;46.59;97861.13;10332478;28;795;-72
2023/12/13 10:34:51;;;;;;;;;;;;;;;17.73;46.32;97860.16;10331583;28;1905;-74
2023/12/13 10:39:48;;;;;;;;;;;;;;;17.70;46.48;97866.50;10331599;28;883;-72
2023/12/13 10:44:44;;;;;;;;;;;;;;;17.71;46.65;97860.28;10331152;28;907;-76
2023/12/13 10:49:40;;;;;;;;;;;;;;;17.71;46.42;97864.69;10330107;28;937;-72
2023/12/13 10:54:35;;;;;;;;;;;;;;;17.70;46.71;97855.13;10330777;28;1979;-72
2023/12/13 10:59:31;;;;;;;;;;;;;;;17.69;46.70;97851.66;10331244;28;905;-71
2023/12/13 11:04:27;;;;;;;;;;;;;;;17.73;46.44;97854.88;10330456;28;909;-71
2023/12/13 11:09:24;;;;;;;;;;;;;;;17.77;46.49;97855.53;10329708;28;992;-71
2023/12/13 11:14:20;;;;;;;;;;;;;;;17.74;46.25;97853.94;10330599;28;1905;-72
2023/12/13 11:19:19;;;;;;;;;;;;;;;17.76;46.33;97857.28;10329870;28;936;-72
2023/12/13 11:24:15;;;;;;;;;;;;;;;17.75;46.33;97856.47;10329073;28;914;-72
2023/12/13 11:29:11;;;;;;;;;;;;;;;17.77;46.49;97858.16;10329552;28;833;-75
2023/12/13 11:34:07;;;;;;;;;;;;;;;17.77;46.37;97860.78;10329882;28;1902;-72
2023/12/13 11:39:03;;;;;;;;;;;;;;;17.76;46.34;97867.84;10329812;28;838;-72
2023/12/13 11:43:59;;;;;;;;;;;;;;;17.76;46.31;97867.84;10330005;28;833;-75
2023/12/13 11:48:55;;;;;;;;;;;;;;;17.79;46.35;97869.41;10328781;28;873;-72
2023/12/13 11:53:51;;;;;;;;;;;;;;;17.82;46.18;97874.50;10329340;28;1913;-72
2023/12/13 11:58:46;;;;;;;;;;;;;;;17.77;46.40;97873.97;10327788;28;842;-71
2023/12/13 12:03:42;;;;;;;;;;;;;;;17.75;46.36;97869.63;10327103;28;910;-71
2023/12/13 12:08:38;;;;;;;;;;;;;;;17.80;46.23;97873.78;10328549;28;853;-72
2023/12/13 12:13:34;;;;;;;;;;;;;;;17.81;46.41;97872.81;10327674;28;1890;-72
2023/12/13 12:18:30;;;;;;;;;;;;;;;17.79;46.43;97874.69;10328395;28;838;-71
2023/12/13 12:23:26;;;;;;;;;;;;;;;17.82;46.29;97870.06;10327659;28;822;-72
2023/12/13 12:28:23;;;;;;;;;;;;;;;17.83;46.32;97873.53;10327142;28;849;-71
2023/12/13 12:33:19;;;;;;;;;;;;;;;17.80;46.32;97871.97;10326876;28;1894;-71
2023/12/13 12:38:15;;;;;;;;;;;;;;;17.79;46.44;97877.31;10328014;28;1299;-72
2023/12/13 12:43:11;;;;;;;;;;;;;;;17.80;46.22;97887.78;10326607;28;902;-73
2023/12/13 12:48:06;;;;;;;;;;;;;;;17.79;46.35;97883.47;10327080;28;837;-72
2023/12/13 12:53:02;;;;;;;;;;;;;;;17.82;46.48;97887.69;10326189;28;1913;-71
2023/12/13 12:57:58;;;;;;;;;;;;;;;17.82;46.40;97885.06;10326157;28;880;-71
2023/12/13 13:02:54;;;;;;;;;;;;;;;17.82;46.41;97887.69;10326000;28;760;-71
2023/12/13 13:07:52;;;;;;;;;;;;;;;17.79;46.52;97885.22;10326492;28;881;-71
2023/12/13 13:12:48;;;;;;;;;;;;;;;17.75;46.73;97887.25;10323160;28;1945;-71
2023/12/13 13:17:43;;;;;;;;;;;;;;;17.74;46.80;97894.31;10324122;28;822;-71
2023/12/13 13:22:40;;;;;;;;;;;;;;;17.69;46.75;97904.34;10324341;28;838;-71
2023/12/13 13:27:36;;;;;;;;;;;;;;;17.66;46.86;97901.94;10325471;28;846;-71
2023/12/13 13:32:32;;;;;;;;;;;;;;;17.64;47.00;97901.19;10324293;28;1894;-71
2023/12/13 13:37:28;;;;;;;;;;;;;;;17.60;46.98;97905.00;10324838;28;1275;-75
2023/12/13 13:42:24;;;;;;;;;;;;;;;17.60;46.98;97902.34;10324746;28;873;-72
2023/12/13 13:47:20;;;;;;;;;;;;;;;17.63;47.29;97906.56;10324685;28;800;-72
2023/12/13 13:52:16;;;;;;;;;;;;;;;17.64;47.33;97898.56;10324500;28;1914;-76
2023/12/13 13:57:11;;;;;;;;;;;;;;;17.68;47.12;97907.06;10324146;28;826;-76
2023/12/13 14:02:07;;;;;;;;;;;;;;;17.71;47.30;97910.34;10324059;28;993;-71
2023/12/13 14:07:05;;;;;;;;;;;;;;;17.72;47.34;97919.94;10323910;28;865;-71
2023/12/13 14:12:01;;;;;;;;;;;;;;;17.77;47.17;97927.50;10323830;28;1898;-71
2023/12/13 14:16:57;;;;;;;;;;;;;;;17.76;47.14;97923.16;10323858;28;826;-71
2023/12/13 14:21:53;;;;;;;;;;;;;;;17.78;47.34;97925.72;10323664;28;869;-71
2023/12/13 14:26:49;;;;;;;;;;;;;;;17.81;47.58;97928.97;10328806;28;801;-71
2023/12/13 14:31:45;;;;;;;;;;;;;;;17.78;47.59;97939.72;10330463;28;1969;-71
2023/12/13 14:36:40;;;;;;;;;;;;;;;17.75;47.79;97940.78;10331356;28;1265;-72
2023/12/13 14:41:36;;;;;;;;;;;;;;;17.72;47.79;97951.53;10330884;28;837;-72
2023/12/13 14:46:32;;;;;;;;;;;;;;;17.69;47.89;97945.66;10329687;28;937;-72
2023/12/13 14:51:28;;;;;;;;;;;;;;;17.64;48.02;97953.06;10329863;28;1910;-72
2023/12/13 14:56:25;;;;;;;;;;;;;;;17.62;47.86;97962.84;10330446;28;750;-72
2023/12/13 15:01:21;;;;;;;;;;;;;;;17.60;48.04;97965.59;10330186;28;975;-72
2023/12/13 15:06:17;;;;;;;;;;;;;;;17.62;47.79;97984.75;10329465;28;857;-71
2023/12/13 15:11:13;;;;;;;;;;;;;;;17.66;47.72;97988.88;10329491;28;2265;-72
2023/12/13 15:16:09;;;;;;;;;;;;;;;17.65;47.88;97981.91;10328704;28;1611;-73
2023/12/13 15:21:05;;;;;;;;;;;;;;;17.64;47.96;97987.31;10328810;28;977;-71
2023/12/13 15:26:01;;;;;;;;;;;;;;;17.68;47.94;97992.25;10329399;28;894;-72
2023/12/13 15:30:57;;;;;;;;;;;;;;;17.68;47.80;97992.25;10328486;28;1023;-70
2023/12/13 15:35:53;;;;;;;;;;;;;;;17.70;47.77;97995.59;10328814;28;1894;-70
2023/12/13 15:40:49;;;;;;;;;;;;;;;17.73;47.75;98000.66;10308927;28;1652;-70
2023/12/13 15:45:44;;;;;;;;;;;;;;;17.72;47.71;98009.50;10287683;28;1608;-70
2023/12/13 15:50:40;;;;;;;;;;;;;;;17.73;47.83;98016.47;10308850;28;1005;-71
2023/12/13 15:55:36;;;;;;;;;;;;;;;17.79;47.64;98025.78;10327417;28;1914;-70
2023/12/13 16:00:32;;;;;;;;;;;;;;;17.77;47.53;98032.09;10326333;28;911;-70
2023/12/13 16:05:28;;;;;;;;;;;;;;;17.79;47.63;98027.53;10327353;28;786;-71
2023/12/13 16:10:24;;;;;;;;;;;;;;;17.80;47.46;98045.06;10327958;28;803;-71
2023/12/13 16:15:20;;;;;;;;;;;;;;;17.80;47.48;98034.53;10327148;28;1961;-71
2023/12/13 16:20:16;;;;;;;;;;;;;;;17.82;47.56;98049.28;10326805;28;754;-72
2023/12/13 16:25:12;;;;;;;;;;;;;;;17.82;47.48;98051.91;10327320;28;987;-71
2023/12/13 16:30:07;;;;;;;;;;;;;;;17.82;47.52;98059.81;10326285;28;768;-72
2023/12/13 16:35:03;;;;;;;;;;;;;;;17.84;47.54;98059.69;10326341;28;1956;-71
2023/12/13 16:39:59;;;;;;;;;;;;;;;17.86;47.68;98063.91;10326486;28;885;-72
2023/12/13 16:44:55;;;;;;;;;;;;;;;17.83;47.69;98063.28;10326900;28;850;-72
2023/12/13 16:49:51;;;;;;;;;;;;;;;17.83;47.83;98079.94;10326335;28;798;-72
2023/12/13 16:54:47;;;;;;;;;;;;;;;17.88;47.70;98088.38;10326804;28;1917;-72
2023/12/13 16:59:43;;;;;;;;;;;;;;;17.87;47.64;98096.41;10326044;28;926;-74
2023/12/13 17:04:39;;;;;;;;;;;;;;;17.86;47.69;98100.81;10325957;28;870;-71
2023/12/13 17:09:35;;;;;;;;;;;;;;;17.90;47.67;98109.38;10326462;28;810;-71
2023/12/13 17:14:32;;;;;;;;;;;;;;;17.91;47.66;98113.69;10326241;28;1902;-72
2023/12/13 17:19:28;;;;;;;;;;;;;;;17.85;47.76;98122.03;10326910;28;940;-74
2023/12/13 17:24:24;;;;;;;;;;;;;;;17.87;47.74;98130.69;10326217;28;850;-71
2023/12/13 17:29:20;;;;;;;;;;;;;;;17.88;47.40;98137.63;10325448;28;865;-72
2023/12/13 17:34:17;;;;;;;;;;;;;;;17.91;47.55;98140.88;10325731;28;1975;-72
2023/12/13 17:39:14;;;;;;;;;;;;;;;17.92;47.40;98150.50;10325143;28;1087;-72
2023/12/13 17:44:11;;;;;;;;;;;;;;;17.91;47.30;98156.69;10325590;28;887;-71
2023/12/13 17:49:07;;;;;;;;;;;;;;;17.93;47.35;98164.50;10324406;28;1233;-71
2023/12/13 17:54:03;;;;;;;;;;;;;;;17.95;47.23;98179.28;10324825;28;2014;-71
2023/12/13 17:58:59;;;;;;;;;;;;;;;17.95;47.34;98197.72;10326038;28;775;-71
2023/12/13 18:03:55;;;;;;;;;;;;;;;17.94;47.24;98188.09;10333147;28;958;-71
2023/12/13 18:08:51;;;;;;;;;;;;;;;17.94;47.29;98200.44;10332375;28;1043;-71
2023/12/13 18:13:47;;;;;;;;;;;;;;;17.98;47.15;98212.47;10332475;28;1906;-71
2023/12/13 18:18:43;;;;;;;;;;;;;;;17.96;47.16;98212.56;10332325;28;871;-71
2023/12/13 18:23:39;;;;;;;;;;;;;;;17.94;47.24;98209.19;10332008;28;941;-71
2023/12/13 18:28:35;;;;;;;;;;;;;;;17.99;47.01;98218.59;10332600;28;875;-71
2023/12/13 18:33:31;;;;;;;;;;;;;;;17.96;47.01;98222.28;10331663;28;2030;-71
2023/12/13 18:38:29;;;;;;;;;;;;;;;17.98;47.19;98230.94;10330889;28;1448;-71
2023/12/13 18:43:25;;;;;;;;;;;;;;;18.00;47.06;98239.59;10331997;28;841;-71
2023/12/13 18:48:21;;;;;;;;;;;;;;;17.99;47.12;98250.22;10331186;28;900;-71
2023/12/13 18:53:17;;;;;;;;;;;;;;;17.99;46.99;98264.25;10330878;28;1914;-71
2023/12/13 18:58:13;;;;;;;;;;;;;;;18.01;47.30;98272.91;10330794;28;1562;-71
2023/12/13 19:03:09;;;;;;;;;;;;;;;18.01;46.84;98278.19;10330050;28;949;-71
2023/12/13 19:08:05;;;;;;;;;;;;;;;18.00;46.97;98291.44;10331690;28;1142;-71
2023/12/13 19:13:01;;;;;;;;;;;;;;;18.02;46.88;98292.19;10329707;28;1897;-71
2023/12/13 19:17:57;;;;;;;;;;;;;;;18.02;46.98;98295.66;10330773;28;771;-71
2023/12/13 19:22:53;;;;;;;;;;;;;;;18.01;46.84;98299.28;10329388;28;822;-72
2023/12/13 19:27:49;;;;;;;;;;;;;;;18.05;47.08;98302.53;10329679;28;898;-71
2023/12/13 19:32:45;;;;;;;;;;;;;;;18.03;46.74;98315.84;10329136;28;1914;-72
2023/12/13 19:37:41;;;;;;;;;;;;;;;18.04;46.89;98322.78;10329183;28;1141;-71
2023/12/13 19:42:37;;;;;;;;;;;;;;;18.05;46.79;98337.69;10329190;28;787;-71
2023/12/13 19:47:33;;;;;;;;;;;;;;;18.05;46.82;98342.94;10329543;28;842;-71
2023/12/13 19:52:28;;;;;;;;;;;;;;;18.00;47.00;98341.53;10328676;28;1902;-72
2023/12/13 19:57:24;;;;;;;;;;;;;;;18.01;46.71;98357.28;10329136;28;979;-71
2023/12/13 20:02:21;;;;;;;;;;;;;;;18.04;46.84;98364.97;10327898;28;850;-71
2023/12/13 20:07:18;;;;;;;;;;;;;;;18.05;46.93;98377.22;10327459;28;917;-71
2023/12/13 20:12:14;;;;;;;;;;;;;;;18.06;46.95;98384.19;10327779;28;1902;-71
2023/12/13 20:17:10;;;;;;;;;;;;;;;18.03;46.78;98389.66;10327745;28;782;-71
2023/12/13 20:22:06;;;;;;;;;;;;;;;18.04;46.77;98398.41;10327600;28;832;-71
2023/12/13 20:27:02;;;;;;;;;;;;;;;18.06;46.73;98405.28;10327332;28;787;-71
2023/12/13 20:31:58;;;;;;;;;;;;;;;18.05;46.95;98410.63;10327047;28;1945;-71
2023/12/13 20:36:54;;;;;;;;;;;;;;;18.07;46.69;98417.50;10327649;28;1920;-71
2023/12/13 20:41:50;;;;;;;;;;;;;;;18.03;46.81;98418.66;10326994;28;880;-71
2023/12/13 20:46:47;;;;;;;;;;;;;;;17.99;46.93;98422.44;10326674;28;906;-71
2023/12/13 20:51:43;;;;;;;;;;;;;;;17.98;47.06;98431.31;10326944;28;1969;-71
2023/12/13 20:56:38;;;;;;;;;;;;;;;17.99;46.83;98448.78;10326176;28;879;-71
2023/12/13 21:01:34;;;;;;;;;;;;;;;17.97;47.01;98450.69;10326774;28;960;-71
2023/12/13 21:06:31;;;;;;;;;;;;;;;17.95;47.00;98457.88;10326817;28;857;-71
2023/12/13 21:11:28;;;;;;;;;;;;;;;17.92;46.94;98466.81;10325160;28;1949;-71
2023/12/13 21:16:24;;;;;;;;;;;;;;;17.92;46.96;98472.09;10326363;28;839;-71
2023/12/13 21:21:21;;;;;;;;;;;;;;;17.91;47.05;98480.09;10325633;28;933;-71
2023/12/13 21:26:17;;;;;;;;;;;;;;;17.90;47.10;98484.50;10325496;28;993;-71
2023/12/13 21:31:13;;;;;;;;;;;;;;;17.90;47.02;98481.88;10326084;28;889;-71
2023/12/13 21:36:09;;;;;;;;;;;;;;;17.86;47.01;98490.91;10325377;28;1973;-71
2023/12/13 21:41:05;;;;;;;;;;;;;;;17.86;47.14;98495.34;10325821;28;878;-71
2023/12/13 21:46:01;;;;;;;;;;;;;;;17.84;47.04;98507.78;10307242;28;766;-71
2023/12/13 21:50:57;;;;;;;;;;;;;;;17.83;46.96;98516.63;10325062;28;868;-71
2023/12/13 21:55:53;;;;;;;;;;;;;;;17.79;47.11;98520.34;10325056;28;1965;-71
2023/12/13 22:00:49;;;;;;;;;;;;;;;17.77;47.11;98528.38;10324862;28;799;-72
2023/12/13 22:05:44;;;;;;;;;;;;;;;17.74;47.16;98532.06;10325958;28;885;-72
2023/12/13 22:10:42;;;;;;;;;;;;;;;17.74;47.33;98539.13;10324677;28;867;-71
2023/12/13 22:15:37;;;;;;;;;;;;;;;17.73;47.24;98540.03;10325056;28;1898;-72
2023/12/13 22:20:33;;;;;;;;;;;;;;;17.69;47.32;98557.84;10324478;28;872;-71
2023/12/13 22:25:29;;;;;;;;;;;;;;;17.67;47.42;98565.00;10324248;28;898;-72
2023/12/13 22:30:25;;;;;;;;;;;;;;;17.64;47.40;98570.44;10324285;28;791;-71
2023/12/13 22:35:21;;;;;;;;;;;;;;;17.63;47.38;98579.31;10324289;28;1894;-71
2023/12/13 22:40:17;;;;;;;;;;;;;;;17.60;47.59;98581.28;10324236;28;786;-71
2023/12/13 22:45:13;;;;;;;;;;;;;;;17.60;47.48;98584.75;10325346;28;913;-71
2023/12/13 22:50:09;;;;;;;;;;;;;;;17.60;47.46;98591.81;10331866;28;943;-71
2023/12/13 22:55:04;;;;;;;;;;;;;;;17.59;47.38;98590.97;10331118;28;2032;-72
2023/12/13 23:00:00;;;;;;;;;;;;;;;17.57;47.41;98599.91;10332115;28;912;-71
2023/12/13 23:04:56;;;;;;;;;;;;;;;17.55;47.53;98615.78;10330676;28;882;-71
2023/12/13 23:09:52;;;;;;;;;;;;;;;17.58;47.46;98628.81;10331144;28;918;-71
2023/12/13 23:14:48;;;;;;;;;;;;;;;17.58;47.27;98633.19;10329669;28;1894;-71
2023/12/13 23:19:44;;;;;;;;;;;;;;;17.55;47.48;98644.78;10329537;28;842;-71
2023/12/13 23:24:40;;;;;;;;;;;;;;;17.55;47.23;98641.28;10330556;28;881;-71
2023/12/13 23:29:35;;;;;;;;;;;;;;;17.57;47.33;98642.91;10330337;28;853;-71
2023/12/13 23:34:31;;;;;;;;;;;;;;;17.55;47.40;98657.94;10330030;28;1950;-70
2023/12/13 23:39:27;;;;;;;;;;;;;;;17.56;47.31;98670.19;10329414;28;878;-71
2023/12/13 23:44:23;;;;;;;;;;;;;;;17.56;47.28;98674.63;10329154;28;882;-71
2023/12/13 23:49:19;;;;;;;;;;;;;;;17.56;47.56;98672.84;10328949;28;786;-71
2023/12/13 23:54:15;;;;;;;;;;;;;;;17.56;47.33;98688.66;10329266;28;1906;-71
2023/12/13 23:59:11;;;;;;;;;;;;;;;17.56;47.52;98699.19;10328426;28;925;-71
